sensor_id;sensor_type;location;lat;lon;timestamp;P1;durP1;ratioP1;P2;durP2;ratioP2
21192;SDS011;10754;51.106;7.164;2022-09-13T00:01:03;4.72;;;1.58;;
21192;SDS011;10754;51.106;7.164;2022-09-13T00:03:29;2.13;;;1.80;;
21192;SDS011;10754;51.106;7.164;2022-09-13T00:05:55;2.95;;;1.90;;
21192;SDS011;10754;51.106;7.164;2022-09-13T00:08:20;3.15;;;2.00;;
21192;SDS011;10754;51.106;7.164;2022-09-13T00:10:46;2.05;;;1.85;;
21192;SDS011;10754;51.106;7.164;2022-09-13T00:13:12;3.35;;;1.60;;
21192;SDS011;10754;51.106;7.164;2022-09-13T00:15:43;5.30;;;1.90;;
21192;SDS011;10754;51.106;7.164;2022-09-13T00:18:10;1.90;;;1.80;;
21192;SDS011;10754;51.106;7.164;2022-09-13T00:20:35;2.58;;;1.63;;
21192;SDS011;10754;51.106;7.164;2022-09-13T00:23:01;2.75;;;1.90;;
21192;SDS011;10754;51.106;7.164;2022-09-13T00:25:27;2.70;;;1.90;;
21192;SDS011;10754;51.106;7.164;2022-09-13T00:27:53;5.05;;;1.95;;
21192;SDS011;10754;51.106;7.164;2022-09-13T00:30:18;3.08;;;2.05;;
21192;SDS011;10754;51.106;7.164;2022-09-13T00:32:44;2.55;;;2.10;;
21192;SDS011;10754;51.106;7.164;2022-09-13T00:35:09;3.67;;;1.90;;
21192;SDS011;10754;51.106;7.164;2022-09-13T00:37:35;2.33;;;1.60;;
21192;SDS011;10754;51.106;7.164;2022-09-13T00:40:01;3.97;;;2.08;;
21192;SDS011;10754;51.106;7.164;2022-09-13T00:42:28;4.28;;;1.70;;
21192;SDS011;10754;51.106;7.164;2022-09-13T00:47:29;5.35;;;2.00;;
21192;SDS011;10754;51.106;7.164;2022-09-13T00:50:10;2.00;;;1.80;;
21192;SDS011;10754;51.106;7.164;2022-09-13T00:52:42;3.08;;;1.70;;
21192;SDS011;10754;51.106;7.164;2022-09-13T00:55:23;2.60;;;2.10;;
21192;SDS011;10754;51.106;7.164;2022-09-13T00:57:52;3.53;;;2.05;;
21192;SDS011;10754;51.106;7.164;2022-09-13T01:00:21;2.28;;;1.88;;
21192;SDS011;10754;51.106;7.164;2022-09-13T01:02:51;2.80;;;2.10;;
21192;SDS011;10754;51.106;7.164;2022-09-13T01:05:22;2.35;;;1.67;;
21192;SDS011;10754;51.106;7.164;2022-09-13T01:07:51;2.35;;;1.83;;
21192;SDS011;10754;51.106;7.164;2022-09-13T01:10:18;3.13;;;2.03;;
21192;SDS011;10754;51.106;7.164;2022-09-13T01:12:54;2.83;;;1.70;;
21192;SDS011;10754;51.106;7.164;2022-09-13T01:15:25;2.83;;;1.90;;
21192;SDS011;10754;51.106;7.164;2022-09-13T01:17:50;1.70;;;1.60;;
21192;SDS011;10754;51.106;7.164;2022-09-13T01:20:17;2.95;;;1.90;;
21192;SDS011;10754;51.106;7.164;2022-09-13T01:22:56;2.30;;;1.92;;
21192;SDS011;10754;51.106;7.164;2022-09-13T01:26:00;2.85;;;1.80;;
21192;SDS011;10754;51.106;7.164;2022-09-13T01:33:53;3.33;;;2.13;;
21192;SDS011;10754;51.106;7.164;2022-09-13T01:36:38;3.40;;;1.83;;
21192;SDS011;10754;51.106;7.164;2022-09-13T01:39:16;2.67;;;2.10;;
21192;SDS011;10754;51.106;7.164;2022-09-13T01:41:48;2.97;;;1.90;;
21192;SDS011;10754;51.106;7.164;2022-09-13T01:44:46;3.33;;;1.98;;
21192;SDS011;10754;51.106;7.164;2022-09-13T01:52:53;3.10;;;1.83;;
21192;SDS011;10754;51.106;7.164;2022-09-13T02:00:35;2.22;;;1.85;;
21192;SDS011;10754;51.106;7.164;2022-09-13T02:03:22;2.25;;;1.90;;
21192;SDS011;10754;51.106;7.164;2022-09-13T02:05:58;2.38;;;1.77;;
21192;SDS011;10754;51.106;7.164;2022-09-13T02:08:43;4.25;;;1.90;;
21192;SDS011;10754;51.106;7.164;2022-09-13T02:11:22;2.05;;;1.85;;
21192;SDS011;10754;51.106;7.164;2022-09-13T02:13:50;2.10;;;1.90;;
21192;SDS011;10754;51.106;7.164;2022-09-13T02:16:31;3.15;;;2.03;;
21192;SDS011;10754;51.106;7.164;2022-09-13T02:19:05;4.00;;;2.13;;
21192;SDS011;10754;51.106;7.164;2022-09-13T02:21:40;2.55;;;2.00;;
21192;SDS011;10754;51.106;7.164;2022-09-13T02:24:11;2.08;;;1.83;;
21192;SDS011;10754;51.106;7.164;2022-09-13T02:26:41;3.00;;;2.08;;
21192;SDS011;10754;51.106;7.164;2022-09-13T02:29:10;4.13;;;2.08;;
21192;SDS011;10754;51.106;7.164;2022-09-13T02:31:46;3.70;;;1.80;;
21192;SDS011;10754;51.106;7.164;2022-09-13T02:34:28;2.25;;;2.05;;
21192;SDS011;10754;51.106;7.164;2022-09-13T02:36:59;2.30;;;2.10;;
21192;SDS011;10754;51.106;7.164;2022-09-13T02:39:26;4.28;;;2.15;;
21192;SDS011;10754;51.106;7.164;2022-09-13T02:41:57;3.97;;;2.15;;
21192;SDS011;10754;51.106;7.164;2022-09-13T02:44:54;2.40;;;2.00;;
21192;SDS011;10754;51.106;7.164;2022-09-13T02:50:10;4.18;;;1.95;;
21192;SDS011;10754;51.106;7.164;2022-09-13T03:00:59;2.72;;;2.05;;
21192;SDS011;10754;51.106;7.164;2022-09-13T03:03:25;3.33;;;1.95;;
21192;SDS011;10754;51.106;7.164;2022-09-13T03:05:51;4.38;;;2.00;;
21192;SDS011;10754;51.106;7.164;2022-09-13T03:08:17;5.47;;;1.85;;
21192;SDS011;10754;51.106;7.164;2022-09-13T03:13:39;2.78;;;1.88;;
21192;SDS011;10754;51.106;7.164;2022-09-13T03:22:13;4.97;;;1.83;;
21192;SDS011;10754;51.106;7.164;2022-09-13T03:31:04;6.72;;;2.40;;
21192;SDS011;10754;51.106;7.164;2022-09-13T03:33:56;4.25;;;1.95;;
21192;SDS011;10754;51.106;7.164;2022-09-13T03:39:22;4.55;;;2.00;;
21192;SDS011;10754;51.106;7.164;2022-09-13T03:42:09;5.90;;;2.35;;
21192;SDS011;10754;51.106;7.164;2022-09-13T03:44:42;2.92;;;2.22;;
21192;SDS011;10754;51.106;7.164;2022-09-13T03:47:11;7.43;;;2.28;;
21192;SDS011;10754;51.106;7.164;2022-09-13T03:49:38;2.55;;;2.05;;
21192;SDS011;10754;51.106;7.164;2022-09-13T03:52:04;4.25;;;1.80;;
21192;SDS011;10754;51.106;7.164;2022-09-13T03:54:31;5.22;;;1.90;;
21192;SDS011;10754;51.106;7.164;2022-09-13T03:57:11;3.45;;;2.03;;
21192;SDS011;10754;51.106;7.164;2022-09-13T03:59:43;4.38;;;1.92;;
21192;SDS011;10754;51.106;7.164;2022-09-13T04:02:11;2.47;;;1.83;;
21192;SDS011;10754;51.106;7.164;2022-09-13T04:04:37;2.40;;;2.20;;
21192;SDS011;10754;51.106;7.164;2022-09-13T04:07:04;2.00;;;1.77;;
21192;SDS011;10754;51.106;7.164;2022-09-13T04:09:30;3.92;;;2.10;;
21192;SDS011;10754;51.106;7.164;2022-09-13T04:11:55;5.88;;;1.90;;
21192;SDS011;10754;51.106;7.164;2022-09-13T04:14:21;3.83;;;2.10;;
21192;SDS011;10754;51.106;7.164;2022-09-13T04:16:50;3.00;;;1.92;;
21192;SDS011;10754;51.106;7.164;2022-09-13T04:19:19;4.55;;;2.03;;
21192;SDS011;10754;51.106;7.164;2022-09-13T04:21:49;2.33;;;1.77;;
21192;SDS011;10754;51.106;7.164;2022-09-13T04:24:17;2.83;;;2.10;;
21192;SDS011;10754;51.106;7.164;2022-09-13T04:26:43;3.60;;;1.92;;
21192;SDS011;10754;51.106;7.164;2022-09-13T04:29:08;2.65;;;1.80;;
21192;SDS011;10754;51.106;7.164;2022-09-13T04:31:35;3.45;;;1.70;;
21192;SDS011;10754;51.106;7.164;2022-09-13T04:34:01;2.88;;;2.17;;
21192;SDS011;10754;51.106;7.164;2022-09-13T04:36:27;4.20;;;2.08;;
21192;SDS011;10754;51.106;7.164;2022-09-13T04:38:52;2.45;;;1.90;;
21192;SDS011;10754;51.106;7.164;2022-09-13T04:41:18;3.08;;;1.88;;
21192;SDS011;10754;51.106;7.164;2022-09-13T04:43:47;3.15;;;1.80;;
21192;SDS011;10754;51.106;7.164;2022-09-13T04:46:14;3.47;;;2.58;;
21192;SDS011;10754;51.106;7.164;2022-09-13T04:48:39;3.38;;;2.20;;
21192;SDS011;10754;51.106;7.164;2022-09-13T04:51:05;3.67;;;2.13;;
21192;SDS011;10754;51.106;7.164;2022-09-13T04:53:30;2.60;;;1.90;;
21192;SDS011;10754;51.106;7.164;2022-09-13T04:56:02;3.58;;;2.10;;
21192;SDS011;10754;51.106;7.164;2022-09-13T04:58:29;4.45;;;2.03;;
21192;SDS011;10754;51.106;7.164;2022-09-13T05:01:02;4.60;;;2.30;;
21192;SDS011;10754;51.106;7.164;2022-09-13T05:03:32;4.00;;;2.17;;
21192;SDS011;10754;51.106;7.164;2022-09-13T05:06:05;3.40;;;1.95;;
21192;SDS011;10754;51.106;7.164;2022-09-13T05:08:33;2.13;;;2.03;;
21192;SDS011;10754;51.106;7.164;2022-09-13T05:10:59;2.25;;;1.65;;
21192;SDS011;10754;51.106;7.164;2022-09-13T05:13:25;2.15;;;2.00;;
21192;SDS011;10754;51.106;7.164;2022-09-13T05:15:58;2.30;;;2.10;;
21192;SDS011;10754;51.106;7.164;2022-09-13T05:18:29;3.80;;;2.40;;
21192;SDS011;10754;51.106;7.164;2022-09-13T05:20:56;2.20;;;1.90;;
21192;SDS011;10754;51.106;7.164;2022-09-13T05:23:23;2.15;;;2.05;;
21192;SDS011;10754;51.106;7.164;2022-09-13T05:25:56;5.47;;;2.47;;
21192;SDS011;10754;51.106;7.164;2022-09-13T05:28:22;2.72;;;2.10;;
21192;SDS011;10754;51.106;7.164;2022-09-13T05:30:59;3.83;;;1.73;;
21192;SDS011;10754;51.106;7.164;2022-09-13T05:33:30;6.22;;;2.53;;
21192;SDS011;10754;51.106;7.164;2022-09-13T05:35:58;2.25;;;1.83;;
21192;SDS011;10754;51.106;7.164;2022-09-13T05:38:23;3.08;;;2.15;;
21192;SDS011;10754;51.106;7.164;2022-09-13T05:40:56;4.25;;;2.20;;
21192;SDS011;10754;51.106;7.164;2022-09-13T05:43:23;2.22;;;2.05;;
21192;SDS011;10754;51.106;7.164;2022-09-13T05:45:50;3.42;;;2.35;;
21192;SDS011;10754;51.106;7.164;2022-09-13T05:48:15;2.55;;;2.35;;
21192;SDS011;10754;51.106;7.164;2022-09-13T05:50:41;2.20;;;2.10;;
21192;SDS011;10754;51.106;7.164;2022-09-13T05:53:07;2.88;;;1.73;;
21192;SDS011;10754;51.106;7.164;2022-09-13T05:55:32;3.63;;;2.08;;
21192;SDS011;10754;51.106;7.164;2022-09-13T05:58:02;2.65;;;2.03;;
21192;SDS011;10754;51.106;7.164;2022-09-13T06:00:27;2.22;;;1.83;;
21192;SDS011;10754;51.106;7.164;2022-09-13T06:02:53;2.75;;;2.13;;
21192;SDS011;10754;51.106;7.164;2022-09-13T06:05:19;2.63;;;2.13;;
21192;SDS011;10754;51.106;7.164;2022-09-13T06:07:45;2.20;;;2.05;;
21192;SDS011;10754;51.106;7.164;2022-09-13T06:10:10;3.70;;;2.42;;
21192;SDS011;10754;51.106;7.164;2022-09-13T06:12:36;2.95;;;2.20;;
21192;SDS011;10754;51.106;7.164;2022-09-13T06:15:02;3.35;;;2.05;;
21192;SDS011;10754;51.106;7.164;2022-09-13T06:17:28;5.05;;;2.30;;
21192;SDS011;10754;51.106;7.164;2022-09-13T06:19:53;3.00;;;2.20;;
21192;SDS011;10754;51.106;7.164;2022-09-13T06:22:20;2.33;;;1.95;;
21192;SDS011;10754;51.106;7.164;2022-09-13T06:24:46;2.55;;;2.35;;
21192;SDS011;10754;51.106;7.164;2022-09-13T06:27:11;2.53;;;1.85;;
21192;SDS011;10754;51.106;7.164;2022-09-13T06:29:37;2.15;;;1.90;;
21192;SDS011;10754;51.106;7.164;2022-09-13T06:32:03;4.63;;;1.95;;
21192;SDS011;10754;51.106;7.164;2022-09-13T06:34:28;2.22;;;1.92;;
21192;SDS011;10754;51.106;7.164;2022-09-13T06:36:54;3.83;;;2.17;;
21192;SDS011;10754;51.106;7.164;2022-09-13T06:39:20;2.30;;;2.13;;
21192;SDS011;10754;51.106;7.164;2022-09-13T06:41:45;4.38;;;2.50;;
21192;SDS011;10754;51.106;7.164;2022-09-13T06:44:11;4.18;;;2.10;;
21192;SDS011;10754;51.106;7.164;2022-09-13T06:46:36;5.75;;;2.42;;
21192;SDS011;10754;51.106;7.164;2022-09-13T06:49:03;3.40;;;1.92;;
21192;SDS011;10754;51.106;7.164;2022-09-13T06:51:30;3.25;;;1.92;;
21192;SDS011;10754;51.106;7.164;2022-09-13T06:53:57;3.53;;;1.83;;
21192;SDS011;10754;51.106;7.164;2022-09-13T06:56:27;3.97;;;1.88;;
21192;SDS011;10754;51.106;7.164;2022-09-13T06:58:58;5.10;;;1.90;;
21192;SDS011;10754;51.106;7.164;2022-09-13T07:01:28;3.05;;;1.95;;
21192;SDS011;10754;51.106;7.164;2022-09-13T07:03:59;3.55;;;2.13;;
21192;SDS011;10754;51.106;7.164;2022-09-13T07:06:26;2.67;;;2.35;;
21192;SDS011;10754;51.106;7.164;2022-09-13T07:08:53;3.75;;;2.05;;
21192;SDS011;10754;51.106;7.164;2022-09-13T07:11:21;3.72;;;1.90;;
21192;SDS011;10754;51.106;7.164;2022-09-13T07:13:48;2.10;;;2.00;;
21192;SDS011;10754;51.106;7.164;2022-09-13T07:16:19;4.18;;;1.92;;
21192;SDS011;10754;51.106;7.164;2022-09-13T07:18:52;2.00;;;1.90;;
21192;SDS011;10754;51.106;7.164;2022-09-13T07:21:26;2.85;;;2.10;;
21192;SDS011;10754;51.106;7.164;2022-09-13T07:23:52;3.90;;;2.20;;
21192;SDS011;10754;51.106;7.164;2022-09-13T07:26:19;2.05;;;1.90;;
21192;SDS011;10754;51.106;7.164;2022-09-13T07:28:46;5.82;;;3.60;;
21192;SDS011;10754;51.106;7.164;2022-09-13T07:31:17;5.30;;;3.70;;
21192;SDS011;10754;51.106;7.164;2022-09-13T07:33:47;6.70;;;2.97;;
21192;SDS011;10754;51.106;7.164;2022-09-13T07:36:17;5.28;;;2.65;;
21192;SDS011;10754;51.106;7.164;2022-09-13T07:38:42;6.00;;;2.50;;
21192;SDS011;10754;51.106;7.164;2022-09-13T07:41:12;3.00;;;2.33;;
21192;SDS011;10754;51.106;7.164;2022-09-13T07:43:39;3.20;;;2.58;;
21192;SDS011;10754;51.106;7.164;2022-09-13T07:46:05;7.07;;;2.40;;
21192;SDS011;10754;51.106;7.164;2022-09-13T07:48:34;4.25;;;2.55;;
21192;SDS011;10754;51.106;7.164;2022-09-13T07:51:05;2.53;;;2.30;;
21192;SDS011;10754;51.106;7.164;2022-09-13T07:53:32;2.30;;;2.10;;
21192;SDS011;10754;51.106;7.164;2022-09-13T07:56:00;1.80;;;1.70;;
21192;SDS011;10754;51.106;7.164;2022-09-13T07:58:45;1.90;;;1.70;;
21192;SDS011;10754;51.106;7.164;2022-09-13T08:03:44;1.85;;;1.40;;
21192;SDS011;10754;51.106;7.164;2022-09-13T08:06:15;3.95;;;1.85;;
21192;SDS011;10754;51.106;7.164;2022-09-13T08:08:40;2.78;;;1.50;;
21192;SDS011;10754;51.106;7.164;2022-09-13T08:11:06;2.78;;;1.90;;
21192;SDS011;10754;51.106;7.164;2022-09-13T08:13:31;2.10;;;1.85;;
21192;SDS011;10754;51.106;7.164;2022-09-13T08:16:03;2.60;;;1.55;;
21192;SDS011;10754;51.106;7.164;2022-09-13T08:18:30;2.13;;;1.80;;
21192;SDS011;10754;51.106;7.164;2022-09-13T08:20:56;3.65;;;1.50;;
21192;SDS011;10754;51.106;7.164;2022-09-13T08:23:23;2.30;;;1.92;;
21192;SDS011;10754;51.106;7.164;2022-09-13T08:25:49;2.28;;;2.00;;
21192;SDS011;10754;51.106;7.164;2022-09-13T08:28:15;2.83;;;1.70;;
21192;SDS011;10754;51.106;7.164;2022-09-13T08:30:43;2.88;;;1.58;;
21192;SDS011;10754;51.106;7.164;2022-09-13T08:33:08;1.85;;;1.50;;
21192;SDS011;10754;51.106;7.164;2022-09-13T08:35:35;2.35;;;1.65;;
21192;SDS011;10754;51.106;7.164;2022-09-13T08:38:02;4.20;;;1.83;;
21192;SDS011;10754;51.106;7.164;2022-09-13T08:40:42;3.97;;;1.70;;
21192;SDS011;10754;51.106;7.164;2022-09-13T08:43:24;1.40;;;1.30;;
21192;SDS011;10754;51.106;7.164;2022-09-13T08:46:01;1.92;;;1.60;;
21192;SDS011;10754;51.106;7.164;2022-09-13T08:48:34;2.25;;;1.95;;
21192;SDS011;10754;51.106;7.164;2022-09-13T08:51:03;1.42;;;1.15;;
21192;SDS011;10754;51.106;7.164;2022-09-13T08:53:42;3.78;;;2.22;;
21192;SDS011;10754;51.106;7.164;2022-09-13T08:58:49;2.92;;;1.80;;
21192;SDS011;10754;51.106;7.164;2022-09-13T09:04:09;3.85;;;1.48;;
21192;SDS011;10754;51.106;7.164;2022-09-13T09:06:44;2.75;;;1.40;;
21192;SDS011;10754;51.106;7.164;2022-09-13T09:09:12;3.80;;;1.65;;
21192;SDS011;10754;51.106;7.164;2022-09-13T09:11:48;2.00;;;1.50;;
21192;SDS011;10754;51.106;7.164;2022-09-13T09:14:23;1.70;;;1.50;;
21192;SDS011;10754;51.106;7.164;2022-09-13T09:17:03;3.88;;;1.50;;
21192;SDS011;10754;51.106;7.164;2022-09-13T09:19:35;4.05;;;1.70;;
21192;SDS011;10754;51.106;7.164;2022-09-13T09:22:05;4.93;;;1.50;;
21192;SDS011;10754;51.106;7.164;2022-09-13T09:24:43;4.95;;;1.40;;
21192;SDS011;10754;51.106;7.164;2022-09-13T09:27:19;2.15;;;1.30;;
21192;SDS011;10754;51.106;7.164;2022-09-13T09:29:54;3.40;;;1.73;;
21192;SDS011;10754;51.106;7.164;2022-09-13T09:35:15;3.53;;;1.55;;
21192;SDS011;10754;51.106;7.164;2022-09-13T09:40:47;3.33;;;1.40;;
21192;SDS011;10754;51.106;7.164;2022-09-13T09:43:16;1.75;;;1.48;;
21192;SDS011;10754;51.106;7.164;2022-09-13T09:45:46;4.72;;;1.50;;
21192;SDS011;10754;51.106;7.164;2022-09-13T09:48:14;4.82;;;1.90;;
21192;SDS011;10754;51.106;7.164;2022-09-13T09:50:46;2.08;;;1.65;;
21192;SDS011;10754;51.106;7.164;2022-09-13T09:53:28;4.32;;;1.60;;
21192;SDS011;10754;51.106;7.164;2022-09-13T09:56:20;1.75;;;1.60;;
21192;SDS011;10754;51.106;7.164;2022-09-13T09:58:51;3.00;;;1.30;;
21192;SDS011;10754;51.106;7.164;2022-09-13T10:01:26;2.78;;;1.42;;
21192;SDS011;10754;51.106;7.164;2022-09-13T10:04:05;2.45;;;1.52;;
21192;SDS011;10754;51.106;7.164;2022-09-13T10:06:34;1.65;;;1.55;;
21192;SDS011;10754;51.106;7.164;2022-09-13T10:09:05;2.42;;;2.00;;
21192;SDS011;10754;51.106;7.164;2022-09-13T10:11:41;2.33;;;1.52;;
21192;SDS011;10754;51.106;7.164;2022-09-13T10:14:27;3.58;;;1.75;;
21192;SDS011;10754;51.106;7.164;2022-09-13T10:17:45;2.45;;;1.58;;
21192;SDS011;10754;51.106;7.164;2022-09-13T10:19:50;3.35;;;1.70;;
21192;SDS011;10754;51.106;7.164;2022-09-13T10:22:24;1.48;;;1.23;;
21192;SDS011;10754;51.106;7.164;2022-09-13T10:24:50;1.70;;;1.50;;
21192;SDS011;10754;51.106;7.164;2022-09-13T10:27:21;2.05;;;1.65;;
21192;SDS011;10754;51.106;7.164;2022-09-13T10:29:56;2.15;;;1.63;;
21192;SDS011;10754;51.106;7.164;2022-09-13T10:32:24;2.53;;;1.77;;
21192;SDS011;10754;51.106;7.164;2022-09-13T10:34:51;1.88;;;1.60;;
21192;SDS011;10754;51.106;7.164;2022-09-13T10:37:18;2.33;;;1.40;;
21192;SDS011;10754;51.106;7.164;2022-09-13T10:42:27;1.27;;;1.17;;
21192;SDS011;10754;51.106;7.164;2022-09-13T10:44:57;3.22;;;1.42;;
21192;SDS011;10754;51.106;7.164;2022-09-13T10:50:15;4.30;;;1.90;;
21192;SDS011;10754;51.106;7.164;2022-09-13T10:52:50;4.18;;;1.58;;
21192;SDS011;10754;51.106;7.164;2022-09-13T10:57:42;2.70;;;1.58;;
21192;SDS011;10754;51.106;7.164;2022-09-13T11:00:10;2.88;;;1.70;;
21192;SDS011;10754;51.106;7.164;2022-09-13T11:08:29;1.92;;;1.40;;
21192;SDS011;10754;51.106;7.164;2022-09-13T11:11:28;1.38;;;1.27;;
21192;SDS011;10754;51.106;7.164;2022-09-13T11:19:30;2.85;;;1.90;;
21192;SDS011;10754;51.106;7.164;2022-09-13T11:28:06;3.17;;;1.45;;
21192;SDS011;10754;51.106;7.164;2022-09-13T11:31:03;2.58;;;1.17;;
21192;SDS011;10754;51.106;7.164;2022-09-13T11:36:19;2.72;;;1.30;;
21192;SDS011;10754;51.106;7.164;2022-09-13T11:39:25;3.55;;;1.40;;
21192;SDS011;10754;51.106;7.164;2022-09-13T11:42:09;3.28;;;1.27;;
21192;SDS011;10754;51.106;7.164;2022-09-13T11:45:06;3.75;;;1.67;;
21192;SDS011;10754;51.106;7.164;2022-09-13T11:47:54;2.80;;;1.70;;
21192;SDS011;10754;51.106;7.164;2022-09-13T11:56:43;1.45;;;1.20;;
21192;SDS011;10754;51.106;7.164;2022-09-13T12:04:56;4.28;;;1.30;;
21192;SDS011;10754;51.106;7.164;2022-09-13T12:07:30;1.10;;;0.95;;
21192;SDS011;10754;51.106;7.164;2022-09-13T12:10:27;3.38;;;1.73;;
21192;SDS011;10754;51.106;7.164;2022-09-13T12:12:53;4.00;;;1.35;;
21192;SDS011;10754;51.106;7.164;2022-09-13T12:15:42;2.10;;;1.20;;
21192;SDS011;10754;51.106;7.164;2022-09-13T12:20:59;1.65;;;1.27;;
21192;SDS011;10754;51.106;7.164;2022-09-13T12:23:35;1.90;;;0.98;;
21192;SDS011;10754;51.106;7.164;2022-09-13T12:28:46;2.10;;;0.93;;
21192;SDS011;10754;51.106;7.164;2022-09-13T12:31:22;1.75;;;0.70;;
21192;SDS011;10754;51.106;7.164;2022-09-13T12:33:50;2.80;;;0.88;;
21192;SDS011;10754;51.106;7.164;2022-09-13T12:44:35;6.03;;;1.08;;
21192;SDS011;10754;51.106;7.164;2022-09-13T12:50:03;3.10;;;0.80;;
21192;SDS011;10754;51.106;7.164;2022-09-13T13:01:40;2.08;;;1.20;;
21192;SDS011;10754;51.106;7.164;2022-09-13T13:04:14;1.77;;;1.08;;
21192;SDS011;10754;51.106;7.164;2022-09-13T13:06:56;2.00;;;1.02;;
21192;SDS011;10754;51.106;7.164;2022-09-13T13:09:27;1.33;;;1.00;;
21192;SDS011;10754;51.106;7.164;2022-09-13T13:11:58;2.67;;;1.13;;
21192;SDS011;10754;51.106;7.164;2022-09-13T13:20:38;2.10;;;1.00;;
21192;SDS011;10754;51.106;7.164;2022-09-13T13:26:08;2.85;;;0.98;;
21192;SDS011;10754;51.106;7.164;2022-09-13T13:38:57;4.40;;;1.42;;
21192;SDS011;10754;51.106;7.164;2022-09-13T13:46:42;4.72;;;1.80;;
21192;SDS011;10754;51.106;7.164;2022-09-13T14:19:39;2.25;;;1.15;;
21192;SDS011;10754;51.106;7.164;2022-09-13T14:22:26;3.22;;;1.10;;
21192;SDS011;10754;51.106;7.164;2022-09-13T14:24:53;3.80;;;1.20;;
21192;SDS011;10754;51.106;7.164;2022-09-13T14:29:56;2.95;;;1.20;;
21192;SDS011;10754;51.106;7.164;2022-09-13T14:32:28;2.92;;;1.33;;
21192;SDS011;10754;51.106;7.164;2022-09-13T14:35:06;7.25;;;2.17;;
21192;SDS011;10754;51.106;7.164;2022-09-13T14:37:47;2.67;;;1.60;;
21192;SDS011;10754;51.106;7.164;2022-09-13T14:42:48;4.93;;;1.30;;
21192;SDS011;10754;51.106;7.164;2022-09-13T14:45:19;2.95;;;1.52;;
21192;SDS011;10754;51.106;7.164;2022-09-13T14:48:04;3.38;;;1.25;;
21192;SDS011;10754;51.106;7.164;2022-09-13T14:50:36;2.42;;;1.40;;
21192;SDS011;10754;51.106;7.164;2022-09-13T14:53:06;3.65;;;1.52;;
21192;SDS011;10754;51.106;7.164;2022-09-13T14:55:39;5.32;;;1.80;;
21192;SDS011;10754;51.106;7.164;2022-09-13T14:58:13;2.20;;;1.58;;
21192;SDS011;10754;51.106;7.164;2022-09-13T15:01:05;4.80;;;1.70;;
21192;SDS011;10754;51.106;7.164;2022-09-13T15:03:31;3.78;;;1.58;;
21192;SDS011;10754;51.106;7.164;2022-09-13T15:05:58;1.83;;;1.13;;
21192;SDS011;10754;51.106;7.164;2022-09-13T15:10:57;3.13;;;1.23;;
21192;SDS011;10754;51.106;7.164;2022-09-13T15:13:24;1.95;;;1.20;;
21192;SDS011;10754;51.106;7.164;2022-09-13T15:15:50;3.90;;;1.42;;
21192;SDS011;10754;51.106;7.164;2022-09-13T15:20:47;5.28;;;1.52;;
21192;SDS011;10754;51.106;7.164;2022-09-13T15:23:25;2.17;;;1.20;;
21192;SDS011;10754;51.106;7.164;2022-09-13T15:25:53;5.82;;;1.50;;
21192;SDS011;10754;51.106;7.164;2022-09-13T15:28:22;2.55;;;1.50;;
21192;SDS011;10754;51.106;7.164;2022-09-13T15:30:49;1.45;;;1.17;;
21192;SDS011;10754;51.106;7.164;2022-09-13T15:33:18;3.47;;;1.27;;
21192;SDS011;10754;51.106;7.164;2022-09-13T15:41:32;1.13;;;0.98;;
21192;SDS011;10754;51.106;7.164;2022-09-13T15:44:03;6.82;;;1.50;;
21192;SDS011;10754;51.106;7.164;2022-09-13T15:46:30;4.93;;;1.42;;
21192;SDS011;10754;51.106;7.164;2022-09-13T15:49:00;3.83;;;1.20;;
21192;SDS011;10754;51.106;7.164;2022-09-13T15:51:29;2.42;;;1.40;;
21192;SDS011;10754;51.106;7.164;2022-09-13T15:53:55;3.03;;;1.40;;
21192;SDS011;10754;51.106;7.164;2022-09-13T15:56:25;4.47;;;1.35;;
21192;SDS011;10754;51.106;7.164;2022-09-13T15:58:56;3.05;;;1.20;;
21192;SDS011;10754;51.106;7.164;2022-09-13T16:01:21;3.65;;;1.42;;
21192;SDS011;10754;51.106;7.164;2022-09-13T16:03:47;2.72;;;1.13;;
21192;SDS011;10754;51.106;7.164;2022-09-13T16:06:12;3.17;;;1.15;;
21192;SDS011;10754;51.106;7.164;2022-09-13T16:08:38;3.15;;;1.20;;
21192;SDS011;10754;51.106;7.164;2022-09-13T16:11:04;2.17;;;1.00;;
21192;SDS011;10754;51.106;7.164;2022-09-13T16:13:31;2.13;;;1.15;;
21192;SDS011;10754;51.106;7.164;2022-09-13T16:15:56;2.03;;;1.05;;
21192;SDS011;10754;51.106;7.164;2022-09-13T16:18:23;2.40;;;1.15;;
21192;SDS011;10754;51.106;7.164;2022-09-13T16:20:48;2.00;;;1.30;;
21192;SDS011;10754;51.106;7.164;2022-09-13T16:23:14;2.17;;;1.10;;
21192;SDS011;10754;51.106;7.164;2022-09-13T16:25:40;1.55;;;1.08;;
21192;SDS011;10754;51.106;7.164;2022-09-13T16:28:06;2.33;;;1.20;;
21192;SDS011;10754;51.106;7.164;2022-09-13T16:30:32;3.60;;;1.20;;
21192;SDS011;10754;51.106;7.164;2022-09-13T16:32:58;2.97;;;1.00;;
21192;SDS011;10754;51.106;7.164;2022-09-13T16:35:28;1.65;;;1.10;;
21192;SDS011;10754;51.106;7.164;2022-09-13T16:37:55;1.63;;;1.27;;
21192;SDS011;10754;51.106;7.164;2022-09-13T16:40:21;3.70;;;1.55;;
21192;SDS011;10754;51.106;7.164;2022-09-13T16:42:47;1.70;;;1.38;;
21192;SDS011;10754;51.106;7.164;2022-09-13T16:45:13;3.30;;;1.77;;
21192;SDS011;10754;51.106;7.164;2022-09-13T16:47:39;1.90;;;1.25;;
21192;SDS011;10754;51.106;7.164;2022-09-13T16:50:05;3.03;;;1.25;;
21192;SDS011;10754;51.106;7.164;2022-09-13T16:52:31;3.40;;;1.33;;
21192;SDS011;10754;51.106;7.164;2022-09-13T16:54:58;3.00;;;1.40;;
21192;SDS011;10754;51.106;7.164;2022-09-13T16:57:24;5.10;;;1.35;;
21192;SDS011;10754;51.106;7.164;2022-09-13T16:59:50;2.97;;;1.50;;
21192;SDS011;10754;51.106;7.164;2022-09-13T17:02:19;2.30;;;1.10;;
21192;SDS011;10754;51.106;7.164;2022-09-13T17:04:45;3.80;;;1.40;;
21192;SDS011;10754;51.106;7.164;2022-09-13T17:07:11;4.55;;;1.38;;
21192;SDS011;10754;51.106;7.164;2022-09-13T17:09:38;3.95;;;1.40;;
21192;SDS011;10754;51.106;7.164;2022-09-13T17:12:04;5.35;;;1.77;;
21192;SDS011;10754;51.106;7.164;2022-09-13T17:14:31;4.43;;;2.10;;
21192;SDS011;10754;51.106;7.164;2022-09-13T17:16:57;5.78;;;1.60;;
21192;SDS011;10754;51.106;7.164;2022-09-13T17:19:24;3.63;;;1.40;;
21192;SDS011;10754;51.106;7.164;2022-09-13T17:21:54;6.90;;;1.50;;
21192;SDS011;10754;51.106;7.164;2022-09-13T17:24:21;3.67;;;1.45;;
21192;SDS011;10754;51.106;7.164;2022-09-13T17:26:50;4.97;;;1.63;;
21192;SDS011;10754;51.106;7.164;2022-09-13T17:29:16;3.05;;;1.33;;
21192;SDS011;10754;51.106;7.164;2022-09-13T17:31:42;2.47;;;1.40;;
21192;SDS011;10754;51.106;7.164;2022-09-13T17:34:08;4.50;;;1.70;;
21192;SDS011;10754;51.106;7.164;2022-09-13T17:36:34;2.58;;;1.45;;
21192;SDS011;10754;51.106;7.164;2022-09-13T17:39:00;5.32;;;1.55;;
21192;SDS011;10754;51.106;7.164;2022-09-13T17:41:25;5.13;;;1.80;;
21192;SDS011;10754;51.106;7.164;2022-09-13T17:43:51;3.47;;;1.60;;
21192;SDS011;10754;51.106;7.164;2022-09-13T17:46:18;2.95;;;1.65;;
21192;SDS011;10754;51.106;7.164;2022-09-13T17:48:46;3.15;;;1.33;;
21192;SDS011;10754;51.106;7.164;2022-09-13T17:51:14;3.55;;;1.65;;
21192;SDS011;10754;51.106;7.164;2022-09-13T17:53:45;3.25;;;1.35;;
21192;SDS011;10754;51.106;7.164;2022-09-13T17:56:16;2.08;;;1.50;;
21192;SDS011;10754;51.106;7.164;2022-09-13T17:58:46;4.07;;;1.70;;
21192;SDS011;10754;51.106;7.164;2022-09-13T18:01:13;5.60;;;1.40;;
21192;SDS011;10754;51.106;7.164;2022-09-13T18:03:38;5.43;;;1.80;;
21192;SDS011;10754;51.106;7.164;2022-09-13T18:06:05;5.07;;;1.40;;
21192;SDS011;10754;51.106;7.164;2022-09-13T18:08:32;4.43;;;1.70;;
21192;SDS011;10754;51.106;7.164;2022-09-13T18:11:09;3.75;;;1.63;;
21192;SDS011;10754;51.106;7.164;2022-09-13T18:13:36;2.25;;;1.63;;
21192;SDS011;10754;51.106;7.164;2022-09-13T18:16:06;3.53;;;1.65;;
21192;SDS011;10754;51.106;7.164;2022-09-13T18:18:34;3.97;;;2.08;;
21192;SDS011;10754;51.106;7.164;2022-09-13T18:21:00;3.55;;;1.50;;
21192;SDS011;10754;51.106;7.164;2022-09-13T18:23:26;2.45;;;1.58;;
21192;SDS011;10754;51.106;7.164;2022-09-13T18:25:59;3.58;;;1.65;;